createdAt,value
2022-08-25T00:01:41.180Z,22.90
2022-08-25T00:04:11.280Z,22.90
2022-08-25T00:06:39.685Z,22.90
2022-08-25T00:09:10.118Z,22.80
2022-08-25T00:11:39.101Z,22.80
2022-08-25T00:14:09.299Z,22.80
2022-08-25T00:16:37.056Z,22.70
2022-08-25T00:19:08.612Z,22.70
2022-08-25T00:21:36.613Z,22.60
2022-08-25T00:24:05.476Z,22.60
2022-08-25T00:26:34.550Z,22.60
2022-08-25T00:29:02.526Z,22.60
2022-08-25T00:31:38.134Z,22.60
2022-08-25T00:34:08.752Z,22.60
2022-08-25T00:36:36.601Z,22.60
2022-08-25T00:39:05.145Z,22.60
2022-08-25T00:41:35.502Z,22.60
2022-08-25T00:44:05.998Z,22.60
2022-08-25T00:46:36.665Z,22.60
2022-08-25T00:49:08.949Z,22.50
2022-08-25T00:51:48.584Z,22.50
2022-08-25T00:54:19.399Z,22.50
2022-08-25T00:56:50.629Z,22.50
2022-08-25T00:59:20.532Z,22.40
2022-08-25T01:01:49.315Z,22.40
2022-08-25T01:04:17.609Z,22.30
2022-08-25T01:06:46.686Z,22.30
2022-08-25T01:09:15.070Z,22.20
2022-08-25T01:11:44.724Z,22.20
2022-08-25T01:14:16.778Z,22.20
2022-08-25T01:16:44.950Z,22.10
2022-08-25T01:19:16.153Z,22.10
2022-08-25T01:21:48.037Z,22.10
2022-08-25T01:24:24.349Z,22.00
2022-08-25T01:26:52.337Z,22.00
2022-08-25T01:32:20.490Z,21.80
2022-08-25T01:34:48.348Z,21.90
2022-08-25T01:37:20.952Z,21.90
2022-08-25T01:39:48.828Z,21.80
2022-08-25T01:42:33.850Z,21.90
2022-08-25T01:45:03.709Z,21.80
2022-08-25T01:47:31.883Z,21.90
2022-08-25T01:49:59.632Z,21.80
2022-08-25T01:52:30.745Z,21.80
2022-08-25T01:54:58.510Z,21.80
2022-08-25T01:57:26.274Z,21.80
2022-08-25T01:59:54.031Z,21.70
2022-08-25T02:02:21.984Z,21.70
2022-08-25T02:04:50.731Z,21.70
2022-08-25T02:07:19.079Z,21.60
2022-08-25T02:09:48.215Z,21.60
2022-08-25T02:12:16.040Z,21.60
2022-08-25T02:14:45.777Z,21.60
2022-08-25T02:17:13.521Z,21.60
2022-08-25T02:19:41.344Z,21.60
2022-08-25T02:25:07.705Z,21.50
2022-08-25T02:27:35.700Z,21.50
2022-08-25T02:30:05.740Z,21.50
2022-08-25T02:32:33.756Z,21.50
2022-08-25T02:35:04.820Z,21.50
2022-08-25T02:37:32.779Z,21.50
2022-08-25T02:42:58.131Z,21.40
2022-08-25T02:45:25.914Z,21.40
2022-08-25T02:47:56.750Z,21.30
2022-08-25T02:50:24.833Z,21.30
2022-08-25T02:52:52.600Z,21.20
2022-08-25T02:55:20.882Z,21.20
2022-08-25T02:57:48.814Z,21.10
2022-08-25T03:00:18.714Z,21.10
2022-08-25T03:02:46.798Z,21.10
2022-08-25T03:05:15.835Z,21.10
2022-08-25T03:07:46.049Z,21.10
2022-08-25T03:10:20.160Z,21.00
2022-08-25T03:12:47.948Z,21.00
2022-08-25T03:15:18.807Z,21.00
2022-08-25T03:17:47.345Z,21.00
2022-08-25T03:20:20.289Z,21.00
2022-08-25T03:22:48.776Z,20.90
2022-08-25T03:25:34.897Z,20.90
2022-08-25T03:28:02.983Z,20.90
2022-08-25T03:30:32.157Z,20.80
2022-08-25T03:33:00.154Z,20.80
2022-08-25T03:35:28.026Z,20.80
2022-08-25T03:37:57.592Z,20.70
2022-08-25T03:40:26.187Z,20.70
2022-08-25T03:43:00.810Z,20.60
2022-08-25T03:45:28.645Z,20.60
2022-08-25T03:47:57.836Z,20.60
2022-08-25T03:50:25.749Z,20.60
2022-08-25T03:52:55.500Z,20.50
2022-08-25T03:55:26.806Z,20.50
2022-08-25T03:57:55.757Z,20.50
2022-08-25T04:00:24.213Z,20.50
2022-08-25T04:02:52.055Z,20.50
2022-08-25T04:05:21.402Z,20.50
2022-08-25T04:07:49.139Z,20.40
2022-08-25T04:10:17.110Z,20.40
2022-08-25T04:12:45.261Z,20.40
2022-08-25T04:15:13.064Z,20.30
2022-08-25T04:17:41.649Z,20.30
2022-08-25T04:20:11.137Z,20.30
2022-08-25T04:22:44.969Z,20.20
2022-08-25T04:25:13.316Z,20.20
2022-08-25T04:27:41.445Z,20.20
2022-08-25T04:30:10.818Z,20.20
2022-08-25T04:32:38.585Z,20.10
2022-08-25T04:35:07.464Z,20.10
2022-08-25T04:37:35.811Z,20.10
2022-08-25T04:40:05.784Z,20.00
2022-08-25T04:42:33.686Z,20.00
2022-08-25T04:45:03.854Z,20.00
2022-08-25T04:47:31.581Z,20.00
2022-08-25T04:49:59.346Z,20.00
2022-08-25T04:52:27.119Z,20.00
2022-08-25T04:54:55.337Z,20.00
2022-08-25T04:57:24.458Z,20.00
2022-08-25T04:59:52.445Z,20.00
2022-08-25T05:02:20.545Z,19.90
2022-08-25T05:04:48.365Z,19.90
2022-08-25T05:07:16.097Z,20.00
2022-08-25T05:09:44.055Z,20.00
2022-08-25T05:12:11.870Z,20.00
2022-08-25T05:14:41.733Z,20.10
2022-08-25T05:17:09.619Z,20.10
2022-08-25T05:19:37.355Z,20.10
2022-08-25T05:22:05.291Z,20.20
2022-08-25T05:24:33.104Z,20.20
2022-08-25T05:27:01.102Z,20.20
2022-08-25T05:29:28.870Z,20.20
2022-08-25T05:31:58.038Z,20.20
2022-08-25T05:34:25.826Z,20.30
2022-08-25T05:36:54.441Z,20.30
2022-08-25T05:39:27.204Z,20.30
2022-08-25T05:41:54.972Z,20.40
2022-08-25T05:44:22.736Z,20.40
2022-08-25T05:46:51.355Z,20.40
2022-08-25T05:49:20.582Z,20.50
2022-08-25T05:51:48.467Z,20.50
2022-08-25T05:54:16.356Z,20.50
2022-08-25T05:56:45.617Z,20.60
2022-08-25T05:59:13.378Z,20.70
2022-08-25T06:01:58.640Z,20.70
2022-08-25T06:04:28.070Z,20.70
2022-08-25T06:06:55.780Z,20.70
2022-08-25T06:09:24.183Z,20.80
2022-08-25T06:11:54.952Z,20.80
2022-08-25T06:14:23.081Z,20.90
2022-08-25T06:16:51.514Z,20.90
2022-08-25T06:19:20.305Z,20.90
2022-08-25T06:21:49.578Z,21.00
2022-08-25T06:24:17.373Z,21.00
2022-08-25T06:26:45.150Z,21.10
2022-08-25T06:29:14.084Z,21.10
2022-08-25T06:31:42.687Z,21.20
2022-08-25T06:34:10.754Z,21.30
2022-08-25T06:36:38.517Z,21.30
2022-08-25T06:39:07.757Z,21.40
2022-08-25T06:41:38.933Z,21.50
2022-08-25T06:44:06.802Z,21.60
2022-08-25T06:46:36.448Z,21.70
2022-08-25T06:49:05.591Z,21.80
2022-08-25T06:51:35.849Z,21.90
2022-08-25T06:54:04.382Z,21.90
2022-08-25T06:56:34.476Z,22.00
2022-08-25T06:59:02.748Z,22.10
2022-08-25T07:01:31.910Z,22.20
2022-08-25T07:04:01.805Z,22.30
2022-08-25T07:06:32.078Z,22.30
2022-08-25T07:09:00.197Z,22.40
2022-08-25T07:11:28.725Z,22.50
2022-08-25T07:13:57.822Z,22.60
2022-08-25T07:16:29.583Z,22.70
2022-08-25T07:18:59.024Z,22.80
2022-08-25T07:21:33.481Z,22.90
2022-08-25T07:24:06.405Z,23.00
2022-08-25T07:26:38.622Z,23.00
2022-08-25T07:29:11.333Z,23.10
2022-08-25T07:31:39.418Z,23.20
2022-08-25T07:34:25.780Z,23.30
2022-08-25T07:36:54.002Z,23.30
2022-08-25T07:39:22.254Z,23.40
2022-08-25T07:41:52.316Z,23.50
2022-08-25T07:44:23.283Z,23.60
2022-08-25T07:46:52.358Z,23.60
2022-08-25T07:49:23.782Z,23.70
2022-08-25T07:52:05.238Z,23.80
2022-08-25T07:54:35.439Z,23.90
2022-08-25T07:57:07.025Z,24.00
2022-08-25T07:59:39.977Z,24.00
2022-08-25T08:02:17.766Z,24.10
2022-08-25T08:04:48.463Z,24.20
2022-08-25T08:07:18.397Z,24.30
2022-08-25T08:09:46.938Z,24.40
2022-08-25T08:12:15.188Z,24.50
2022-08-25T08:14:45.163Z,24.60
2022-08-25T08:17:14.548Z,24.70
2022-08-25T08:19:45.363Z,24.80
2022-08-25T08:22:19.126Z,24.90
2022-08-25T08:24:54.919Z,25.00
2022-08-25T08:27:25.014Z,25.20
2022-08-25T08:29:54.541Z,25.30
2022-08-25T08:32:25.184Z,25.40
2022-08-25T08:35:03.289Z,25.50
2022-08-25T08:37:31.409Z,25.60
2022-08-25T08:40:01.404Z,25.70
2022-08-25T08:42:47.005Z,25.80
2022-08-25T08:45:27.626Z,25.90
2022-08-25T08:48:19.368Z,26.00
2022-08-25T08:50:57.616Z,26.10
2022-08-25T08:53:33.927Z,26.20
2022-08-25T08:56:06.762Z,26.30
2022-08-25T08:58:42.373Z,26.40
2022-08-25T09:01:18.619Z,26.40
2022-08-25T09:03:55.274Z,26.50
2022-08-25T09:06:29.666Z,26.60
2022-08-25T09:09:01.968Z,26.70
2022-08-25T09:11:52.883Z,26.80
2022-08-25T09:14:40.059Z,26.90
2022-08-25T09:17:19.243Z,27.00
2022-08-25T09:20:29.516Z,27.10
2022-08-25T09:23:03.175Z,27.20
2022-08-25T09:25:52.933Z,27.30
2022-08-25T09:28:24.506Z,27.40
2022-08-25T09:30:58.983Z,27.50
2022-08-25T09:33:31.134Z,27.60
2022-08-25T09:36:04.560Z,27.60
2022-08-25T09:38:34.762Z,27.70
2022-08-25T09:41:03.148Z,27.80
2022-08-25T09:43:33.813Z,27.80
2022-08-25T09:46:04.146Z,27.90
2022-08-25T09:48:40.606Z,27.90
2022-08-25T09:51:18.912Z,28.00
2022-08-25T09:53:52.753Z,28.10
2022-08-25T09:56:22.994Z,28.20
2022-08-25T09:58:51.658Z,28.30
2022-08-25T10:01:22.462Z,28.30
2022-08-25T10:04:00.941Z,28.40
2022-08-25T10:06:36.879Z,28.40
2022-08-25T10:09:07.107Z,28.50
2022-08-25T10:11:57.996Z,28.60
2022-08-25T10:14:34.092Z,28.70
2022-08-25T10:17:24.627Z,28.80
2022-08-25T10:20:17.126Z,28.90
2022-08-25T10:22:45.876Z,28.90
2022-08-25T10:25:18.127Z,29.00
2022-08-25T10:27:58.744Z,29.10
2022-08-25T10:30:32.879Z,29.20
2022-08-25T10:33:12.502Z,29.20
2022-08-25T10:35:53.751Z,29.30
2022-08-25T10:38:49.381Z,29.30
2022-08-25T10:41:35.017Z,29.40
2022-08-25T10:44:33.004Z,29.40
2022-08-25T10:47:28.330Z,29.50
2022-08-25T10:49:57.227Z,29.70
2022-08-25T10:52:39.079Z,29.70
2022-08-25T10:55:14.905Z,29.80
2022-08-25T10:57:53.540Z,29.90
2022-08-25T11:00:23.617Z,30.00
2022-08-25T11:03:20.235Z,30.10
2022-08-25T11:05:54.465Z,30.30
2022-08-25T11:08:33.670Z,30.40
2022-08-25T11:11:08.125Z,30.50
2022-08-25T11:13:43.792Z,30.50
2022-08-25T11:16:21.739Z,30.60
2022-08-25T11:18:55.186Z,30.70
2022-08-25T11:21:28.180Z,30.80
2022-08-25T11:24:05.699Z,30.90
2022-08-25T11:26:37.320Z,31.00
2022-08-25T11:29:13.148Z,31.00
2022-08-25T11:31:47.338Z,30.90
2022-08-25T11:34:20.291Z,30.80
2022-08-25T11:36:54.132Z,30.70
2022-08-25T11:39:37.479Z,30.60
2022-08-25T11:42:16.846Z,30.70
2022-08-25T11:44:54.982Z,30.80
2022-08-25T11:47:44.409Z,30.90
2022-08-25T11:54:05.311Z,31.10
2022-08-25T11:56:40.266Z,31.20
2022-08-25T11:59:09.261Z,31.30
2022-08-25T12:02:28.850Z,31.40
2022-08-25T12:04:57.641Z,31.50
2022-08-25T12:07:28.974Z,31.60
2022-08-25T12:10:21.722Z,31.60
2022-08-25T12:13:10.297Z,31.60
2022-08-25T12:16:03.092Z,31.50
2022-08-25T12:18:46.492Z,31.60
2022-08-25T12:21:32.122Z,31.60
2022-08-25T12:24:17.839Z,31.70
2022-08-25T12:26:53.668Z,31.80
2022-08-25T12:29:30.834Z,31.80
2022-08-25T12:32:20.846Z,31.90
2022-08-25T12:35:10.818Z,32.00
2022-08-25T12:38:07.091Z,32.00
2022-08-25T12:40:38.689Z,32.00
2022-08-25T12:43:13.797Z,32.00
2022-08-25T12:45:51.121Z,32.00
2022-08-25T12:48:44.006Z,32.00
2022-08-25T12:51:19.401Z,32.10
2022-08-25T12:53:50.967Z,32.10
2022-08-25T12:56:29.381Z,32.10
2022-08-25T12:59:09.835Z,32.10
2022-08-25T13:01:54.362Z,32.10
2022-08-25T13:04:53.614Z,32.20
2022-08-25T13:07:35.861Z,32.20
2022-08-25T13:10:21.817Z,32.20
2022-08-25T13:12:56.114Z,32.20
2022-08-25T13:15:39.673Z,32.30
2022-08-25T13:18:23.646Z,32.30
2022-08-25T13:20:55.748Z,32.30
2022-08-25T13:23:27.337Z,32.30
2022-08-25T13:25:58.482Z,32.20
2022-08-25T13:28:32.973Z,32.30
2022-08-25T13:31:05.503Z,32.30
2022-08-25T13:33:36.435Z,32.40
2022-08-25T13:36:23.466Z,32.40
2022-08-25T13:38:51.914Z,32.50
2022-08-25T13:41:23.844Z,32.50
2022-08-25T13:44:01.083Z,32.50
2022-08-25T13:46:31.640Z,32.60
2022-08-25T13:49:06.466Z,32.60
2022-08-25T13:51:38.483Z,32.60
2022-08-25T13:54:08.468Z,32.70
2022-08-25T13:56:40.913Z,32.60
2022-08-25T13:59:23.828Z,32.70
2022-08-25T14:01:53.255Z,32.60
2022-08-25T14:04:27.198Z,32.60
2022-08-25T14:07:09.973Z,32.40
2022-08-25T14:09:41.683Z,32.40
2022-08-25T14:12:09.504Z,32.50
2022-08-25T14:14:37.285Z,32.50
2022-08-25T14:17:22.191Z,32.50
2022-08-25T14:19:58.412Z,32.60
2022-08-25T14:22:27.053Z,32.60
2022-08-25T14:24:55.714Z,32.50
2022-08-25T14:27:23.698Z,32.50
2022-08-25T14:29:52.925Z,32.40
2022-08-25T14:32:20.932Z,32.40
2022-08-25T14:34:48.802Z,32.30
2022-08-25T14:37:19.913Z,32.20
2022-08-25T14:39:47.893Z,32.20
2022-08-25T14:42:16.677Z,32.20
2022-08-25T14:44:45.707Z,32.30
2022-08-25T14:47:13.501Z,32.30
2022-08-25T14:49:45.772Z,32.40
2022-08-25T14:52:22.520Z,32.40
2022-08-25T14:54:50.699Z,32.40
2022-08-25T14:57:18.474Z,32.40
2022-08-25T14:59:46.278Z,32.40
2022-08-25T15:02:20.134Z,32.40
2022-08-25T15:04:53.453Z,32.50
2022-08-25T15:07:40.150Z,32.50
2022-08-25T15:10:13.666Z,32.50
2022-08-25T15:12:47.894Z,32.50
2022-08-25T15:15:19.356Z,32.50
2022-08-25T15:17:49.450Z,32.40
2022-08-25T15:20:19.061Z,32.40
2022-08-25T15:22:48.566Z,32.40
2022-08-25T15:25:16.678Z,32.40
2022-08-25T15:27:45.949Z,32.40
2022-08-25T15:30:15.062Z,32.50
2022-08-25T15:32:43.016Z,32.40
2022-08-25T15:35:11.745Z,32.40
2022-08-25T15:37:43.601Z,32.40
2022-08-25T15:40:13.754Z,32.50
2022-08-25T15:42:42.992Z,32.60
2022-08-25T15:45:14.474Z,32.60
2022-08-25T15:47:42.242Z,32.60
2022-08-25T15:50:14.390Z,32.50
2022-08-25T15:52:46.480Z,32.40
2022-08-25T15:55:17.344Z,32.30
2022-08-25T15:57:45.131Z,32.20
2022-08-25T16:00:16.708Z,32.00
2022-08-25T16:02:46.323Z,31.80
2022-08-25T16:05:16.234Z,31.70
2022-08-25T16:07:45.736Z,31.60
2022-08-25T16:10:13.808Z,31.50
2022-08-25T16:12:42.953Z,31.40
2022-08-25T16:15:12.200Z,31.30
2022-08-25T16:17:40.818Z,31.20
2022-08-25T16:20:13.840Z,31.10
2022-08-25T16:22:42.845Z,31.00
2022-08-25T16:25:11.910Z,30.90
2022-08-25T16:27:40.087Z,30.80
2022-08-25T16:30:16.751Z,30.80
2022-08-25T16:32:46.238Z,30.70
2022-08-25T16:35:14.577Z,30.60
2022-08-25T16:37:42.757Z,30.50
2022-08-25T16:40:14.834Z,30.50
2022-08-25T16:42:42.920Z,30.40
2022-08-25T16:45:12.845Z,30.40
2022-08-25T16:47:42.707Z,30.30
2022-08-25T16:50:11.073Z,30.20
2022-08-25T16:52:58.125Z,30.20
2022-08-25T16:55:26.974Z,30.10
2022-08-25T16:57:55.143Z,30.10
2022-08-25T17:00:28.082Z,30.00
2022-08-25T17:02:59.158Z,30.00
2022-08-25T17:05:28.230Z,29.90
2022-08-25T17:08:13.652Z,29.90
2022-08-25T17:10:43.830Z,29.80
2022-08-25T17:13:12.757Z,29.70
2022-08-25T17:15:43.755Z,29.70
2022-08-25T17:18:13.240Z,29.60
2022-08-25T17:20:42.447Z,29.60
2022-08-25T17:23:12.109Z,29.50
2022-08-25T17:25:43.469Z,29.50
2022-08-25T17:28:11.954Z,29.40
2022-08-25T17:30:40.167Z,29.30
2022-08-25T17:33:09.256Z,29.20
2022-08-25T17:35:39.970Z,29.10
2022-08-25T17:38:07.918Z,29.10
2022-08-25T17:40:37.406Z,29.00
2022-08-25T17:43:05.812Z,28.90
2022-08-25T17:45:37.241Z,28.80
2022-08-25T17:48:09.167Z,28.80
2022-08-25T17:50:39.001Z,28.70
2022-08-25T17:53:07.291Z,28.70
2022-08-25T17:55:37.874Z,28.60
2022-08-25T17:58:06.090Z,28.50
2022-08-25T18:00:34.386Z,28.40
2022-08-25T18:03:04.055Z,28.40
2022-08-25T18:05:35.113Z,28.30
2022-08-25T18:08:04.485Z,28.20
2022-08-25T18:10:38.145Z,28.10
2022-08-25T18:13:05.926Z,28.10
2022-08-25T18:15:34.448Z,28.00
2022-08-25T18:18:04.491Z,27.90
2022-08-25T18:20:34.006Z,27.90
2022-08-25T18:23:04.349Z,27.80
2022-08-25T18:25:36.798Z,27.70
2022-08-25T18:28:09.583Z,27.70
2022-08-25T18:30:37.417Z,27.60
2022-08-25T18:33:05.358Z,27.50
2022-08-25T18:35:34.633Z,27.40
2022-08-25T18:38:20.020Z,27.30
2022-08-25T18:40:49.358Z,27.30
2022-08-25T18:43:17.516Z,27.20
2022-08-25T18:45:48.188Z,27.10
2022-08-25T18:48:17.296Z,27.10
2022-08-25T18:50:50.650Z,27.00
2022-08-25T18:53:19.960Z,26.90
2022-08-25T18:55:58.602Z,26.80
2022-08-25T18:58:26.904Z,26.70
2022-08-25T19:00:54.818Z,26.70
2022-08-25T19:03:23.387Z,26.60
2022-08-25T19:05:55.031Z,26.50
2022-08-25T19:08:25.757Z,26.40
2022-08-25T19:10:54.468Z,26.30
2022-08-25T19:13:22.909Z,26.30
2022-08-25T19:15:52.310Z,26.20
2022-08-25T19:18:26.152Z,26.10
2022-08-25T19:20:59.141Z,26.00
2022-08-25T19:23:27.048Z,25.90
2022-08-25T19:25:54.828Z,25.90
2022-08-25T19:28:23.957Z,25.80
2022-08-25T19:30:51.855Z,25.70
2022-08-25T19:33:42.447Z,25.70
2022-08-25T19:36:09.887Z,25.60
2022-08-25T19:38:39.305Z,25.50
2022-08-25T19:41:10.561Z,25.40
2022-08-25T19:43:46.714Z,25.40
2022-08-25T19:46:33.082Z,25.30
2022-08-25T19:49:07.594Z,25.20
2022-08-25T19:51:38.576Z,25.20
2022-08-25T19:54:09.262Z,25.10
2022-08-25T19:56:53.703Z,25.00
2022-08-25T19:59:22.888Z,24.90
2022-08-25T20:01:50.746Z,24.80
2022-08-25T20:04:18.616Z,24.70
2022-08-25T20:06:48.115Z,24.70
2022-08-25T20:09:20.771Z,24.60
2022-08-25T20:12:04.987Z,24.60
2022-08-25T20:14:34.957Z,24.50
2022-08-25T20:17:02.830Z,24.50
2022-08-25T20:19:31.051Z,24.40
2022-08-25T20:22:00.167Z,24.30
2022-08-25T20:24:45.502Z,24.30
2022-08-25T20:27:14.624Z,24.20
2022-08-25T20:29:44.615Z,24.20
2022-08-25T20:32:15.694Z,24.10
2022-08-25T20:37:14.136Z,24.00
2022-08-25T20:39:43.137Z,23.90
2022-08-25T20:42:11.257Z,23.90
2022-08-25T20:44:42.064Z,23.80
2022-08-25T20:47:11.347Z,23.80
2022-08-25T20:49:40.001Z,23.70
2022-08-25T20:52:08.502Z,23.70
2022-08-25T20:54:37.619Z,23.60
2022-08-25T20:57:07.957Z,23.60
2022-08-25T20:59:36.073Z,23.50
2022-08-25T21:02:03.997Z,23.50
2022-08-25T21:04:32.065Z,23.50
2022-08-25T21:07:01.076Z,23.40
2022-08-25T21:09:30.039Z,23.40
2022-08-25T21:12:01.315Z,23.30
2022-08-25T21:14:30.117Z,23.30
2022-08-25T21:16:58.611Z,23.20
2022-08-25T21:19:30.310Z,23.20
2022-08-25T21:21:59.479Z,23.20
2022-08-25T21:24:28.609Z,23.10
2022-08-25T21:26:59.534Z,23.10
2022-08-25T21:29:29.965Z,23.10
2022-08-25T21:31:58.476Z,23.00
2022-08-25T21:34:28.216Z,23.00
2022-08-25T21:36:57.866Z,23.00
2022-08-25T21:39:28.059Z,22.90
2022-08-25T21:41:58.535Z,22.90
2022-08-25T21:44:29.398Z,22.80
2022-08-25T21:46:57.313Z,22.80
2022-08-25T21:49:25.172Z,22.80
2022-08-25T21:52:00.099Z,22.80
2022-08-25T21:54:29.404Z,22.70
2022-08-25T21:56:59.777Z,22.70
2022-08-25T21:59:35.782Z,22.70
2022-08-25T22:02:07.359Z,22.70
2022-08-25T22:04:36.848Z,22.60
2022-08-25T22:07:07.176Z,22.60
2022-08-25T22:09:35.312Z,22.50
2022-08-25T22:12:03.285Z,22.50
2022-08-25T22:14:32.930Z,22.50
2022-08-25T22:17:00.859Z,22.40
2022-08-25T22:19:28.902Z,22.40
2022-08-25T22:21:57.556Z,22.30
2022-08-25T22:24:28.286Z,22.30
2022-08-25T22:26:56.409Z,22.30
2022-08-25T22:29:25.309Z,22.20
2022-08-25T22:32:02.167Z,22.20
2022-08-25T22:34:32.916Z,22.20
2022-08-25T22:37:01.281Z,22.10
2022-08-25T22:39:29.918Z,22.10
2022-08-25T22:41:57.994Z,22.10
2022-08-25T22:44:26.620Z,22.10
2022-08-25T22:46:55.689Z,22.10
2022-08-25T22:49:23.765Z,22.00
2022-08-25T22:51:51.689Z,22.00
2022-08-25T22:54:23.925Z,21.90
2022-08-25T22:56:53.673Z,21.90
2022-08-25T22:59:22.592Z,21.80
2022-08-25T23:01:52.360Z,21.80
2022-08-25T23:04:21.696Z,21.70
2022-08-25T23:06:50.584Z,21.60
2022-08-25T23:09:18.683Z,21.50
2022-08-25T23:11:46.586Z,21.50
2022-08-25T23:14:14.382Z,21.50
2022-08-25T23:16:43.323Z,21.40
2022-08-25T23:19:14.327Z,21.40
2022-08-25T23:22:02.305Z,21.40
2022-08-25T23:24:31.053Z,21.30
2022-08-25T23:27:00.613Z,21.30
2022-08-25T23:29:29.162Z,21.30
2022-08-25T23:31:58.313Z,21.20
2022-08-25T23:34:27.500Z,21.20
2022-08-25T23:36:58.186Z,21.20
2022-08-25T23:39:26.022Z,21.10
2022-08-25T23:41:54.225Z,21.10
2022-08-25T23:44:23.551Z,21.10
2022-08-25T23:46:53.748Z,21.00
2022-08-25T23:49:24.186Z,21.00
2022-08-25T23:51:56.061Z,20.90
2022-08-25T23:54:31.060Z,21.00
2022-08-25T23:56:59.536Z,20.90
2022-08-25T23:59:27.493Z,20.90
